Santa Margalida, Spain
Current Conditions -  °F | °C
As of 12:00 PM on Tuesday 21 Oct 2014 (Local Time) from LEPA Reporting Station
Clear Clear  
Wind Chill: 77°   Ceiling: Unl
Heat Index: 79°   Visibility: 6mi
Dew Point: 66°   Wind: 2mph
Humidity: 69%   Direction: NA
Pressure: 30.12"   Gusts: NA
Location:  39.7°N, 3.1°E
Report Text: LEPA 211000Z VRB02KT CAVOK 25/19 Q1020 NOSIG
Loading
Personal Weather Stations






























Interactive Weather Map
Tropical Storm Tracking
New forecast layout! Learn more

10-Day Weather Forecast

Advertisements
Track Severe Weather on mobile